Lady Lola — ZCGQ7 — position and weather

sailwx.info

Track history (hours):
 
Tides and Currents Weather Stations Pressure Air Temp Water Temp Dewpoint Dewpoint Depression Visibility Wind Speed Wind Dir Waves Ship Positions

Lady Lola

Last reported at 2017-Jun-20 11:08 UTC. Time now 2017-Jun-24 22:34 UTC.
Position N 43°49' E 007°47'.

Length 63 m; draft 3.6 m.

Type: Pleasure craft. MMSI: 319713000.

Date/timePositionNaut miles runAvg speedWind from/ knotsBaromVisibWave heightAir tempDewpointWater temp
2017-Jun-20 11:08N 43°49' E 007°47'0 0.0
2017-Jun-20 10:56N 43°49' E 007°47'0 0.3
2017-Jun-20 10:01N 43°49' E 007°47'0 5.1
2017-Jun-20 10:00N 43°49' E 007°47'3 6.6
2017-Jun-20 09:30N 43°47' E 007°44'612.0
2017-Jun-20 09:00N 43°44' E 007°36'510.2
2017-Jun-20 08:30N 43°43' E 007°30'610.4
2017-Jun-20 07:57N 43°41' E 007°22'1010.1
2017-Jun-20 06:57N 43°34' E 007°12'511.9
2017-Jun-20 06:30N 43°31' E 007°06'4 7.9
2017-Jun-20 06:00N 43°31' E 007°01'1 1.3
2017-Jun-20 05:30N 43°32' E 007°02'0 0.0
2017-Jun-20 04:58N 43°32' E 007°02'0 0.0
2017-Jun-20 04:25N 43°32' E 007°02'0 0.0
2017-Jun-20 03:58N 43°32' E 007°02'0 0.0
2017-Jun-20 03:28N 43°32' E 007°02'0 0.0
2017-Jun-20 02:58N 43°32' E 007°02'0 0.0
2017-Jun-20 02:13N 43°32' E 007°02'0 0.1
2017-Jun-20 01:49N 43°32' E 007°02'0 0.0
2017-Jun-20 01:28N 43°32' E 007°02'0 0.0
2017-Jun-20 00:58N 43°32' E 007°02'0 0.0
2017-Jun-20 00:28N 43°32' E 007°02'0 0.0
2017-Jun-19 23:58N 43°32' E 007°02'0 0.1
2017-Jun-19 23:28N 43°32' E 007°02'0 0.0
2017-Jun-19 22:52N 43°32' E 007°02'0 0.0
2017-Jun-19 22:22N 43°32' E 007°02'0 0.0
2017-Jun-19 21:55N 43°32' E 007°02'0 0.0
2017-Jun-19 21:25N 43°32' E 007°02'0 0.0
2017-Jun-19 20:55N 43°32' E 007°02'0 0.0
2017-Jun-19 20:28N 43°32' E 007°02'0 0.0
2017-Jun-19 19:58N 43°32' E 007°02'0 0.0
2017-Jun-19 19:25N 43°32' E 007°02'0 0.0
2017-Jun-19 18:43N 43°32' E 007°02'0 0.0
2017-Jun-19 18:28N 43°32' E 007°02'0 0.0
2017-Jun-19 17:50N 43°32' E 007°02'2 6.0
2017-Jun-19 17:29N 43°30' E 007°02'1 2.9
2017-Jun-19 17:00N 43°31' E 007°04'0 0.0
2017-Jun-19 16:28N 43°31' E 007°04'0 0.0
2017-Jun-19 15:22N 43°31' E 007°04'0 0.0
2017-Jun-19 14:49N 43°31' E 007°04'0 0.0
2017-Jun-19 14:22N 43°31' E 007°04'0 0.1
2017-Jun-19 09:25N 43°31' E 007°04'3 7.3
2017-Jun-19 09:00N 43°28' E 007°02'1 1.5
2017-Jun-19 08:31N 43°27' E 007°02'2 4.5
2017-Jun-19 08:01N 43°29' E 007°02'0 0.3
2017-Jun-19 07:30N 43°29' E 007°02'3 5.7
2017-Jun-19 06:58N 43°32' E 007°01'0 0.1
2017-Jun-19 06:28N 43°32' E 007°01'0 0.0
2017-Jun-19 05:58N 43°32' E 007°01'0 0.0
2017-Jun-19 05:28N 43°32' E 007°01'0 0.0
2017-Jun-19 04:58N 43°32' E 007°01'0 0.0
2017-Jun-19 04:28N 43°32' E 007°01'0 0.0
2017-Jun-19 03:55N 43°32' E 007°01'0 0.1
2017-Jun-19 03:28N 43°32' E 007°02'0 0.0
2017-Jun-19 02:55N 43°32' E 007°02'0 0.1
2017-Jun-19 02:25N 43°32' E 007°01'0 0.0
2017-Jun-19 01:43N 43°32' E 007°01'0 0.1
2017-Jun-19 01:28N 43°32' E 007°01'0 0.0
2017-Jun-19 00:58N 43°32' E 007°01'0 0.0
2017-Jun-19 00:28N 43°32' E 007°01'0 0.0
2017-Jun-18 23:52N 43°32' E 007°01'0 0.0
2017-Jun-18 23:28N 43°32' E 007°01'0 0.0
2017-Jun-18 22:46N 43°32' E 007°01'0 0.1
2017-Jun-18 22:25N 43°32' E 007°01'0 0.0
2017-Jun-18 21:55N 43°32' E 007°02'0 0.0
2017-Jun-18 21:28N 43°32' E 007°02'0 0.0
2017-Jun-18 20:58N 43°32' E 007°01'0 0.0
2017-Jun-18 20:28N 43°32' E 007°01'0 0.0
2017-Jun-18 19:46N 43°32' E 007°01'0 0.0
2017-Jun-18 19:28N 43°32' E 007°01'0 0.1
2017-Jun-18 18:52N 43°32' E 007°01'0 0.0
2017-Jun-18 18:28N 43°32' E 007°01'0 0.0
2017-Jun-18 17:43N 43°32' E 007°01'0 0.0
2017-Jun-18 17:13N 43°32' E 007°01'0 0.0
2017-Jun-18 16:58N 43°32' E 007°01'0 0.0
2017-Jun-18 16:25N 43°32' E 007°01'0 0.0
2017-Jun-18 15:49N 43°32' E 007°01'0 0.1
2017-Jun-18 15:28N 43°32' E 007°01'0 0.0
2017-Jun-18 14:49N 43°32' E 007°01'0 0.0
2017-Jun-18 13:58N 43°32' E 007°01'0 0.0
2017-Jun-18 13:22N 43°32' E 007°01'0 0.0
2017-Jun-18 12:58N 43°32' E 007°01'0 0.1
2017-Jun-18 12:28N 43°32' E 007°01'0 0.0
2017-Jun-18 11:58N 43°32' E 007°01'0 0.0
2017-Jun-18 11:28N 43°32' E 007°01'0 0.1
2017-Jun-18 10:58N 43°32' E 007°01'0 0.0
2017-Jun-18 10:28N 43°32' E 007°01'0 0.0
2017-Jun-18 09:55N 43°32' E 007°01'0 0.1
2017-Jun-18 09:28N 43°32' E 007°01'0 0.1
2017-Jun-18 08:58N 43°32' E 007°01'0 0.0
2017-Jun-18 08:25N 43°32' E 007°01'0 0.1
2017-Jun-18 07:55N 43°32' E 007°01'0 0.0
2017-Jun-18 07:28N 43°32' E 007°01'0 0.1
2017-Jun-18 06:58N 43°32' E 007°01'0 0.1
2017-Jun-18 06:28N 43°32' E 007°01'0 0.0
2017-Jun-18 05:55N 43°32' E 007°01'0 0.0
2017-Jun-18 05:25N 43°32' E 007°01'0 0.0
2017-Jun-18 04:52N 43°32' E 007°01'0 0.0
2017-Jun-18 04:28N 43°32' E 007°01'0 0.0
2017-Jun-18 03:52N 43°32' E 007°01'0 0.0
2017-Jun-18 03:13N 43°32' E 007°01'0 0.1
2017-Jun-18 02:58N 43°32' E 007°01'0 0.0
2017-Jun-18 02:22N 43°32' E 007°01'0 0.0
2017-Jun-18 01:55N 43°32' E 007°01'0 0.0
2017-Jun-18 01:28N 43°32' E 007°01'0 0.0
2017-Jun-18 00:58N 43°32' E 007°01'0 0.0
2017-Jun-18 00:28N 43°32' E 007°01'0 0.0
2017-Jun-17 23:55N 43°32' E 007°01'0 0.0
2017-Jun-17 23:28N 43°32' E 007°01'0 0.0
2017-Jun-17 22:49N 43°32' E 007°01'0 0.0
2017-Jun-17 22:28N 43°32' E 007°01'0 0.0
2017-Jun-17 21:58N 43°32' E 007°01'0 0.0
2017-Jun-17 21:28N 43°32' E 007°01'0 0.0
2017-Jun-17 21:00N 43°32' E 007°01'1 1.8
2017-Jun-17 20:30N 43°31' E 007°01'1 2.8
2017-Jun-17 20:00N 43°30' E 007°02'0 0.3
2017-Jun-17 19:30N 43°30' E 007°02'0 0.2
2017-Jun-17 19:00N 43°30' E 007°02'0 0.1
2017-Jun-17 18:30N 43°30' E 007°02'0 0.0
2017-Jun-17 17:57N 43°30' E 007°02'0 0.0
2017-Jun-17 17:30N 43°30' E 007°02'0 0.0
2017-Jun-17 17:00N 43°30' E 007°02'1 1.3
2017-Jun-17 16:30N 43°30' E 007°02'3 0.5
2017-Jun-17 10:02N 43°28' E 006°58'0 5.3
2017-Jun-17 10:01N 43°28' E 006°58'3 6.0
2017-Jun-17 09:30N 43°31' E 006°60'2 3.7
2017-Jun-17 09:00N 43°32' E 007°02'0 0.0
2017-Jun-17 08:30N 43°32' E 007°02'0 0.0
2017-Jun-17 08:00N 43°32' E 007°02'0 0.0
2017-Jun-17 07:30N 43°32' E 007°02'0 0.0
2017-Jun-17 07:00N 43°32' E 007°02'1 1.2
2017-Jun-17 06:31N 43°32' E 007°01'4 7.0
2017-Jun-17 05:57N 43°31' E 007°07'4 0.6
2017-Jun-16 23:13N 43°35' E 007°08'0 0.0
2017-Jun-16 22:58N 43°35' E 007°08'0 0.0
2017-Jun-16 21:49N 43°35' E 007°08'0 0.0
2017-Jun-16 21:28N 43°35' E 007°08'0 0.0
2017-Jun-16 20:22N 43°35' E 007°08'0 0.0
2017-Jun-16 19:55N 43°35' E 007°08'0 0.0
2017-Jun-16 19:25N 43°35' E 007°08'0 0.0
2017-Jun-16 18:55N 43°35' E 007°08'0 0.0
2017-Jun-16 18:01N 43°35' E 007°08'0 0.0
2017-Jun-16 17:34N 43°35' E 007°08'0 0.0
2017-Jun-16 17:22N 43°35' E 007°08'0 0.0
2017-Jun-16 16:55N 43°35' E 007°08'0 0.0
2017-Jun-16 16:28N 43°35' E 007°08'0 0.0
2017-Jun-16 15:58N 43°35' E 007°08'0 0.0
2017-Jun-16 12:34N 43°35' E 007°08'0 0.0
2017-Jun-16 12:04N 43°35' E 007°08'0 0.0
2017-Jun-16 11:37N 43°35' E 007°08'0 0.0
2017-Jun-16 11:13N 43°35' E 007°08'0 0.0
2017-Jun-16 10:55N 43°35' E 007°08'  
2017-Jun-12 18:44N 43°35' E 007°08'0 0.0
2017-Jun-12 18:27N 43°35' E 007°08'0 0.0
2017-Jun-12 17:54N 43°35' E 007°08'  
Track history (hours):
 
Tides and Currents Weather Stations Pressure Air Temp Water Temp Dewpoint Dewpoint Depression Visibility Wind Speed Wind Dir Waves Ship Positions

Lady Lola

Last reported at 2017-Jun-20 11:08 UTC. Time now 2017-Jun-24 22:34 UTC.
Position N 43°49' E 007°47'.

Length 63 m; draft 3.6 m.

Type: Pleasure craft. MMSI: 319713000.

Date/timePositionNaut miles runAvg speedWind from/ knotsBaromVisibWave heightAir tempDewpointWater temp
2017-Jun-20 11:08N 43°49' E 007°47'0 0.0
2017-Jun-20 10:56N 43°49' E 007°47'0 0.3
2017-Jun-20 10:01N 43°49' E 007°47'0 5.1
2017-Jun-20 10:00N 43°49' E 007°47'3 6.6
2017-Jun-20 09:30N 43°47' E 007°44'612.0
2017-Jun-20 09:00N 43°44' E 007°36'510.2
2017-Jun-20 08:30N 43°43' E 007°30'610.4
2017-Jun-20 07:57N 43°41' E 007°22'1010.1
2017-Jun-20 06:57N 43°34' E 007°12'511.9
2017-Jun-20 06:30N 43°31' E 007°06'4 7.9
2017-Jun-20 06:00N 43°31' E 007°01'1 1.3
2017-Jun-20 05:30N 43°32' E 007°02'0 0.0
2017-Jun-20 04:58N 43°32' E 007°02'0 0.0
2017-Jun-20 04:25N 43°32' E 007°02'0 0.0
2017-Jun-20 03:58N 43°32' E 007°02'0 0.0
2017-Jun-20 03:28N 43°32' E 007°02'0 0.0
2017-Jun-20 02:58N 43°32' E 007°02'0 0.0
2017-Jun-20 02:13N 43°32' E 007°02'0 0.1
2017-Jun-20 01:49N 43°32' E 007°02'0 0.0
2017-Jun-20 01:28N 43°32' E 007°02'0 0.0
2017-Jun-20 00:58N 43°32' E 007°02'0 0.0
2017-Jun-20 00:28N 43°32' E 007°02'0 0.0
2017-Jun-19 23:58N 43°32' E 007°02'0 0.1
2017-Jun-19 23:28N 43°32' E 007°02'0 0.0
2017-Jun-19 22:52N 43°32' E 007°02'0 0.0
2017-Jun-19 22:22N 43°32' E 007°02'0 0.0
2017-Jun-19 21:55N 43°32' E 007°02'0 0.0
2017-Jun-19 21:25N 43°32' E 007°02'0 0.0
2017-Jun-19 20:55N 43°32' E 007°02'0 0.0
2017-Jun-19 20:28N 43°32' E 007°02'0 0.0
2017-Jun-19 19:58N 43°32' E 007°02'0 0.0
2017-Jun-19 19:25N 43°32' E 007°02'0 0.0
2017-Jun-19 18:43N 43°32' E 007°02'0 0.0
2017-Jun-19 18:28N 43°32' E 007°02'0 0.0
2017-Jun-19 17:50N 43°32' E 007°02'2 6.0
2017-Jun-19 17:29N 43°30' E 007°02'1 2.9
2017-Jun-19 17:00N 43°31' E 007°04'0 0.0
2017-Jun-19 16:28N 43°31' E 007°04'0 0.0
2017-Jun-19 15:22N 43°31' E 007°04'0 0.0
2017-Jun-19 14:49N 43°31' E 007°04'0 0.0
2017-Jun-19 14:22N 43°31' E 007°04'0 0.1
2017-Jun-19 09:25N 43°31' E 007°04'3 7.3
2017-Jun-19 09:00N 43°28' E 007°02'1 1.5
2017-Jun-19 08:31N 43°27' E 007°02'2 4.5
2017-Jun-19 08:01N 43°29' E 007°02'0 0.3
2017-Jun-19 07:30N 43°29' E 007°02'3 5.7
2017-Jun-19 06:58N 43°32' E 007°01'0 0.1
2017-Jun-19 06:28N 43°32' E 007°01'0 0.0
2017-Jun-19 05:58N 43°32' E 007°01'0 0.0
2017-Jun-19 05:28N 43°32' E 007°01'0 0.0
2017-Jun-19 04:58N 43°32' E 007°01'0 0.0
2017-Jun-19 04:28N 43°32' E 007°01'0 0.0
2017-Jun-19 03:55N 43°32' E 007°01'0 0.1
2017-Jun-19 03:28N 43°32' E 007°02'0 0.0
2017-Jun-19 02:55N 43°32' E 007°02'0 0.1
2017-Jun-19 02:25N 43°32' E 007°01'0 0.0
2017-Jun-19 01:43N 43°32' E 007°01'0 0.1
2017-Jun-19 01:28N 43°32' E 007°01'0 0.0
2017-Jun-19 00:58N 43°32' E 007°01'0 0.0
2017-Jun-19 00:28N 43°32' E 007°01'0 0.0
2017-Jun-18 23:52N 43°32' E 007°01'0 0.0
2017-Jun-18 23:28N 43°32' E 007°01'0 0.0
2017-Jun-18 22:46N 43°32' E 007°01'0 0.1
2017-Jun-18 22:25N 43°32' E 007°01'0 0.0
2017-Jun-18 21:55N 43°32' E 007°02'0 0.0
2017-Jun-18 21:28N 43°32' E 007°02'0 0.0
2017-Jun-18 20:58N 43°32' E 007°01'0 0.0
2017-Jun-18 20:28N 43°32' E 007°01'0 0.0
2017-Jun-18 19:46N 43°32' E 007°01'0 0.0
2017-Jun-18 19:28N 43°32' E 007°01'0 0.1
2017-Jun-18 18:52N 43°32' E 007°01'0 0.0
2017-Jun-18 18:28N 43°32' E 007°01'0 0.0
2017-Jun-18 17:43N 43°32' E 007°01'0 0.0
2017-Jun-18 17:13N 43°32' E 007°01'0 0.0
2017-Jun-18 16:58N 43°32' E 007°01'0 0.0
2017-Jun-18 16:25N 43°32' E 007°01'0 0.0
2017-Jun-18 15:49N 43°32' E 007°01'0 0.1
2017-Jun-18 15:28N 43°32' E 007°01'0 0.0
2017-Jun-18 14:49N 43°32' E 007°01'0 0.0
2017-Jun-18 13:58N 43°32' E 007°01'0 0.0
2017-Jun-18 13:22N 43°32' E 007°01'0 0.0
2017-Jun-18 12:58N 43°32' E 007°01'0 0.1
2017-Jun-18 12:28N 43°32' E 007°01'0 0.0
2017-Jun-18 11:58N 43°32' E 007°01'0 0.0
2017-Jun-18 11:28N 43°32' E 007°01'0 0.1
2017-Jun-18 10:58N 43°32' E 007°01'0 0.0
2017-Jun-18 10:28N 43°32' E 007°01'0 0.0
2017-Jun-18 09:55N 43°32' E 007°01'0 0.1
2017-Jun-18 09:28N 43°32' E 007°01'0 0.1
2017-Jun-18 08:58N 43°32' E 007°01'0 0.0
2017-Jun-18 08:25N 43°32' E 007°01'0 0.1
2017-Jun-18 07:55N 43°32' E 007°01'0 0.0
2017-Jun-18 07:28N 43°32' E 007°01'0 0.1
2017-Jun-18 06:58N 43°32' E 007°01'0 0.1
2017-Jun-18 06:28N 43°32' E 007°01'0 0.0
2017-Jun-18 05:55N 43°32' E 007°01'0 0.0
2017-Jun-18 05:25N 43°32' E 007°01'0 0.0
2017-Jun-18 04:52N 43°32' E 007°01'0 0.0
2017-Jun-18 04:28N 43°32' E 007°01'0 0.0
2017-Jun-18 03:52N 43°32' E 007°01'0 0.0
2017-Jun-18 03:13N 43°32' E 007°01'0 0.1
2017-Jun-18 02:58N 43°32' E 007°01'0 0.0
2017-Jun-18 02:22N 43°32' E 007°01'0 0.0
2017-Jun-18 01:55N 43°32' E 007°01'0 0.0
2017-Jun-18 01:28N 43°32' E 007°01'0 0.0
2017-Jun-18 00:58N 43°32' E 007°01'0 0.0
2017-Jun-18 00:28N 43°32' E 007°01'0 0.0
2017-Jun-17 23:55N 43°32' E 007°01'0 0.0
2017-Jun-17 23:28N 43°32' E 007°01'0 0.0
2017-Jun-17 22:49N 43°32' E 007°01'0 0.0
2017-Jun-17 22:28N 43°32' E 007°01'0 0.0
2017-Jun-17 21:58N 43°32' E 007°01'0 0.0
2017-Jun-17 21:28N 43°32' E 007°01'0 0.0
2017-Jun-17 21:00N 43°32' E 007°01'1 1.8
2017-Jun-17 20:30N 43°31' E 007°01'1 2.8
2017-Jun-17 20:00N 43°30' E 007°02'0 0.3
2017-Jun-17 19:30N 43°30' E 007°02'0 0.2
2017-Jun-17 19:00N 43°30' E 007°02'0 0.1
2017-Jun-17 18:30N 43°30' E 007°02'0 0.0
2017-Jun-17 17:57N 43°30' E 007°02'0 0.0
2017-Jun-17 17:30N 43°30' E 007°02'0 0.0
2017-Jun-17 17:00N 43°30' E 007°02'1 1.3
2017-Jun-17 16:30N 43°30' E 007°02'3 0.5
2017-Jun-17 10:02N 43°28' E 006°58'0 5.3
2017-Jun-17 10:01N 43°28' E 006°58'3 6.0
2017-Jun-17 09:30N 43°31' E 006°60'2 3.7
2017-Jun-17 09:00N 43°32' E 007°02'0 0.0
2017-Jun-17 08:30N 43°32' E 007°02'0 0.0
2017-Jun-17 08:00N 43°32' E 007°02'0 0.0
2017-Jun-17 07:30N 43°32' E 007°02'0 0.0
2017-Jun-17 07:00N 43°32' E 007°02'1 1.2
2017-Jun-17 06:31N 43°32' E 007°01'4 7.0
2017-Jun-17 05:57N 43°31' E 007°07'4 0.6
2017-Jun-16 23:13N 43°35' E 007°08'0 0.0
2017-Jun-16 22:58N 43°35' E 007°08'0 0.0
2017-Jun-16 21:49N 43°35' E 007°08'0 0.0
2017-Jun-16 21:28N 43°35' E 007°08'0 0.0
2017-Jun-16 20:22N 43°35' E 007°08'0 0.0
2017-Jun-16 19:55N 43°35' E 007°08'0 0.0
2017-Jun-16 19:25N 43°35' E 007°08'0 0.0
2017-Jun-16 18:55N 43°35' E 007°08'0 0.0
2017-Jun-16 18:01N 43°35' E 007°08'0 0.0
2017-Jun-16 17:34N 43°35' E 007°08'0 0.0
2017-Jun-16 17:22N 43°35' E 007°08'0 0.0
2017-Jun-16 16:55N 43°35' E 007°08'0 0.0
2017-Jun-16 16:28N 43°35' E 007°08'0 0.0
2017-Jun-16 15:58N 43°35' E 007°08'0 0.0
2017-Jun-16 12:34N 43°35' E 007°08'0 0.0
2017-Jun-16 12:04N 43°35' E 007°08'0 0.0
2017-Jun-16 11:37N 43°35' E 007°08'0 0.0
2017-Jun-16 11:13N 43°35' E 007°08'0 0.0
2017-Jun-16 10:55N 43°35' E 007°08'  
2017-Jun-12 18:44N 43°35' E 007°08'0 0.0
2017-Jun-12 18:27N 43°35' E 007°08'0 0.0
2017-Jun-12 17:54N 43°35' E 007°08'  

Dump ship's entire track history